sensor_id;sensor_type;location;lat;lon;timestamp;P1;durP1;ratioP1;P2;durP2;ratioP2
77234;SDS011;66253;50.526;14.974;2023-05-16T00:02:36;8.90;;;5.10;;
77234;SDS011;66253;50.526;14.974;2023-05-16T00:05:25;8.50;;;5.30;;
77234;SDS011;66253;50.526;14.974;2023-05-16T00:08:14;8.00;;;4.60;;
77234;SDS011;66253;50.526;14.974;2023-05-16T00:11:02;8.10;;;4.40;;
77234;SDS011;66253;50.526;14.974;2023-05-16T00:13:51;8.20;;;5.30;;
77234;SDS011;66253;50.526;14.974;2023-05-16T00:16:40;8.50;;;4.90;;
77234;SDS011;66253;50.526;14.974;2023-05-16T00:19:28;7.90;;;5.30;;
77234;SDS011;66253;50.526;14.974;2023-05-16T00:22:17;8.30;;;5.30;;
77234;SDS011;66253;50.526;14.974;2023-05-16T00:25:06;7.50;;;5.00;;
77234;SDS011;66253;50.526;14.974;2023-05-16T00:30:41;7.40;;;3.90;;
77234;SDS011;66253;50.526;14.974;2023-05-16T00:33:30;6.70;;;4.80;;
77234;SDS011;66253;50.526;14.974;2023-05-16T00:36:20;6.90;;;4.00;;
77234;SDS011;66253;50.526;14.974;2023-05-16T00:39:09;6.50;;;4.70;;
77234;SDS011;66253;50.526;14.974;2023-05-16T00:41:57;7.30;;;4.50;;
77234;SDS011;66253;50.526;14.974;2023-05-16T00:44:39;8.70;;;5.10;;
77234;SDS011;66253;50.526;14.974;2023-05-16T00:47:27;8.70;;;5.30;;
77234;SDS011;66253;50.526;14.974;2023-05-16T00:50:16;10.00;;;6.10;;
77234;SDS011;66253;50.526;14.974;2023-05-16T00:53:05;9.70;;;5.70;;
77234;SDS011;66253;50.526;14.974;2023-05-16T00:55:54;9.20;;;5.60;;
77234;SDS011;66253;50.526;14.974;2023-05-16T00:58:43;10.60;;;6.20;;
77234;SDS011;66253;50.526;14.974;2023-05-16T01:01:31;12.00;;;7.30;;
77234;SDS011;66253;50.526;14.974;2023-05-16T01:04:21;10.00;;;6.40;;
77234;SDS011;66253;50.526;14.974;2023-05-16T01:07:10;10.60;;;6.00;;
77234;SDS011;66253;50.526;14.974;2023-05-16T01:09:58;10.30;;;6.50;;
77234;SDS011;66253;50.526;14.974;2023-05-16T01:15:45;10.30;;;5.70;;
77234;SDS011;66253;50.526;14.974;2023-05-16T01:18:46;10.60;;;5.60;;
77234;SDS011;66253;50.526;14.974;2023-05-16T01:21:48;10.40;;;5.70;;
77234;SDS011;66253;50.526;14.974;2023-05-16T01:24:48;10.50;;;6.40;;
77234;SDS011;66253;50.526;14.974;2023-05-16T01:30:36;10.40;;;6.80;;
77234;SDS011;66253;50.526;14.974;2023-05-16T01:33:25;11.80;;;6.80;;
77234;SDS011;66253;50.526;14.974;2023-05-16T01:36:16;11.10;;;7.10;;
77234;SDS011;66253;50.526;14.974;2023-05-16T01:39:13;10.30;;;6.60;;
77234;SDS011;66253;50.526;14.974;2023-05-16T01:42:06;10.20;;;6.70;;
77234;SDS011;66253;50.526;14.974;2023-05-16T01:44:59;9.30;;;5.90;;
77234;SDS011;66253;50.526;14.974;2023-05-16T01:47:56;10.70;;;6.30;;
77234;SDS011;66253;50.526;14.974;2023-05-16T01:50:51;11.40;;;6.60;;
77234;SDS011;66253;50.526;14.974;2023-05-16T01:53:42;12.90;;;7.70;;
77234;SDS011;66253;50.526;14.974;2023-05-16T01:56:31;14.00;;;6.60;;
77234;SDS011;66253;50.526;14.974;2023-05-16T01:59:22;12.00;;;6.70;;
77234;SDS011;66253;50.526;14.974;2023-05-16T02:02:11;9.80;;;6.30;;
77234;SDS011;66253;50.526;14.974;2023-05-16T02:05:03;12.20;;;6.60;;
77234;SDS011;66253;50.526;14.974;2023-05-16T02:10:40;9.50;;;6.50;;
77234;SDS011;66253;50.526;14.974;2023-05-16T02:13:21;10.40;;;5.80;;
77234;SDS011;66253;50.526;14.974;2023-05-16T02:16:10;9.90;;;5.90;;
77234;SDS011;66253;50.526;14.974;2023-05-16T02:18:59;10.20;;;6.00;;
77234;SDS011;66253;50.526;14.974;2023-05-16T02:21:47;11.20;;;5.90;;
77234;SDS011;66253;50.526;14.974;2023-05-16T02:24:36;9.50;;;6.70;;
77234;SDS011;66253;50.526;14.974;2023-05-16T02:27:23;11.30;;;5.90;;
77234;SDS011;66253;50.526;14.974;2023-05-16T02:30:12;10.10;;;5.80;;
77234;SDS011;66253;50.526;14.974;2023-05-16T02:33:01;11.90;;;6.50;;
77234;SDS011;66253;50.526;14.974;2023-05-16T02:35:48;9.30;;;6.10;;
77234;SDS011;66253;50.526;14.974;2023-05-16T02:38:37;11.10;;;6.20;;
77234;SDS011;66253;50.526;14.974;2023-05-16T02:41:26;9.80;;;6.20;;
77234;SDS011;66253;50.526;14.974;2023-05-16T02:44:14;8.70;;;5.70;;
77234;SDS011;66253;50.526;14.974;2023-05-16T02:47:03;9.90;;;5.80;;
77234;SDS011;66253;50.526;14.974;2023-05-16T02:49:52;8.30;;;5.20;;
77234;SDS011;66253;50.526;14.974;2023-05-16T02:52:40;8.10;;;4.50;;
77234;SDS011;66253;50.526;14.974;2023-05-16T02:55:29;8.40;;;5.20;;
77234;SDS011;66253;50.526;14.974;2023-05-16T02:58:17;7.30;;;4.30;;
77234;SDS011;66253;50.526;14.974;2023-05-16T03:01:06;6.90;;;3.90;;
77234;SDS011;66253;50.526;14.974;2023-05-16T03:03:54;6.10;;;3.60;;
77234;SDS011;66253;50.526;14.974;2023-05-16T03:06:43;5.80;;;3.60;;
77234;SDS011;66253;50.526;14.974;2023-05-16T03:09:32;6.30;;;3.90;;
77234;SDS011;66253;50.526;14.974;2023-05-16T03:12:20;6.80;;;4.00;;
77234;SDS011;66253;50.526;14.974;2023-05-16T03:15:09;6.60;;;4.00;;
77234;SDS011;66253;50.526;14.974;2023-05-16T03:17:58;7.50;;;4.40;;
77234;SDS011;66253;50.526;14.974;2023-05-16T03:20:46;8.20;;;5.00;;
77234;SDS011;66253;50.526;14.974;2023-05-16T03:23:35;7.30;;;4.60;;
77234;SDS011;66253;50.526;14.974;2023-05-16T03:26:23;6.10;;;4.00;;
77234;SDS011;66253;50.526;14.974;2023-05-16T03:29:12;6.90;;;4.70;;
77234;SDS011;66253;50.526;14.974;2023-05-16T03:32:01;7.20;;;4.10;;
77234;SDS011;66253;50.526;14.974;2023-05-16T03:34:50;7.60;;;4.70;;
77234;SDS011;66253;50.526;14.974;2023-05-16T03:37:39;7.20;;;4.40;;
77234;SDS011;66253;50.526;14.974;2023-05-16T03:40:27;7.40;;;4.60;;
77234;SDS011;66253;50.526;14.974;2023-05-16T03:43:16;7.40;;;4.40;;
77234;SDS011;66253;50.526;14.974;2023-05-16T03:46:05;7.10;;;4.30;;
77234;SDS011;66253;50.526;14.974;2023-05-16T03:48:53;7.80;;;4.60;;
77234;SDS011;66253;50.526;14.974;2023-05-16T03:51:42;8.40;;;4.80;;
77234;SDS011;66253;50.526;14.974;2023-05-16T03:54:30;9.10;;;5.90;;
77234;SDS011;66253;50.526;14.974;2023-05-16T03:57:19;7.50;;;4.50;;
77234;SDS011;66253;50.526;14.974;2023-05-16T04:00:08;9.60;;;5.00;;
77234;SDS011;66253;50.526;14.974;2023-05-16T04:02:58;10.80;;;5.30;;
77234;SDS011;66253;50.526;14.974;2023-05-16T04:05:46;9.20;;;4.90;;
77234;SDS011;66253;50.526;14.974;2023-05-16T04:08:35;10.40;;;5.40;;
77234;SDS011;66253;50.526;14.974;2023-05-16T04:11:24;9.70;;;6.00;;
77234;SDS011;66253;50.526;14.974;2023-05-16T04:14:12;10.40;;;6.20;;
77234;SDS011;66253;50.526;14.974;2023-05-16T04:17:01;10.20;;;5.90;;
77234;SDS011;66253;50.526;14.974;2023-05-16T04:19:49;11.40;;;6.60;;
77234;SDS011;66253;50.526;14.974;2023-05-16T04:22:38;10.60;;;6.20;;
77234;SDS011;66253;50.526;14.974;2023-05-16T04:25:27;11.90;;;6.80;;
77234;SDS011;66253;50.526;14.974;2023-05-16T04:28:15;10.60;;;6.10;;
77234;SDS011;66253;50.526;14.974;2023-05-16T04:31:04;10.90;;;6.10;;
77234;SDS011;66253;50.526;14.974;2023-05-16T04:33:52;13.00;;;7.00;;
77234;SDS011;66253;50.526;14.974;2023-05-16T04:36:41;12.10;;;6.80;;
77234;SDS011;66253;50.526;14.974;2023-05-16T04:39:30;13.10;;;7.40;;
77234;SDS011;66253;50.526;14.974;2023-05-16T04:42:18;15.00;;;8.30;;
77234;SDS011;66253;50.526;14.974;2023-05-16T04:45:07;12.20;;;8.60;;
77234;SDS011;66253;50.526;14.974;2023-05-16T04:47:57;12.10;;;7.10;;
77234;SDS011;66253;50.526;14.974;2023-05-16T04:50:46;12.70;;;7.40;;
77234;SDS011;66253;50.526;14.974;2023-05-16T04:53:34;13.20;;;8.00;;
77234;SDS011;66253;50.526;14.974;2023-05-16T04:56:23;12.00;;;7.00;;
77234;SDS011;66253;50.526;14.974;2023-05-16T04:59:12;12.60;;;7.70;;
77234;SDS011;66253;50.526;14.974;2023-05-16T05:02:01;12.20;;;7.50;;
77234;SDS011;66253;50.526;14.974;2023-05-16T05:04:50;13.40;;;7.30;;
77234;SDS011;66253;50.526;14.974;2023-05-16T05:10:25;13.20;;;8.10;;
77234;SDS011;66253;50.526;14.974;2023-05-16T05:13:14;12.30;;;7.60;;
77234;SDS011;66253;50.526;14.974;2023-05-16T05:16:03;13.40;;;8.10;;
77234;SDS011;66253;50.526;14.974;2023-05-16T05:18:52;13.50;;;8.60;;
77234;SDS011;66253;50.526;14.974;2023-05-16T05:21:23;12.80;;;7.80;;
77234;SDS011;66253;50.526;14.974;2023-05-16T05:24:12;13.20;;;8.80;;
77234;SDS011;66253;50.526;14.974;2023-05-16T05:27:00;15.70;;;10.40;;
77234;SDS011;66253;50.526;14.974;2023-05-16T05:29:49;15.50;;;10.70;;
77234;SDS011;66253;50.526;14.974;2023-05-16T05:32:38;13.30;;;8.80;;
77234;SDS011;66253;50.526;14.974;2023-05-16T05:35:26;13.60;;;8.90;;
77234;SDS011;66253;50.526;14.974;2023-05-16T05:38:15;11.70;;;8.00;;
77234;SDS011;66253;50.526;14.974;2023-05-16T05:41:03;13.10;;;10.60;;
77234;SDS011;66253;50.526;14.974;2023-05-16T05:43:52;12.60;;;8.50;;
77234;SDS011;66253;50.526;14.974;2023-05-16T05:46:41;12.70;;;9.00;;
77234;SDS011;66253;50.526;14.974;2023-05-16T05:49:28;11.80;;;8.10;;
77234;SDS011;66253;50.526;14.974;2023-05-16T05:52:17;10.80;;;7.80;;
77234;SDS011;66253;50.526;14.974;2023-05-16T05:55:05;12.50;;;8.80;;
77234;SDS011;66253;50.526;14.974;2023-05-16T05:57:54;12.10;;;7.90;;
77234;SDS011;66253;50.526;14.974;2023-05-16T06:00:42;10.40;;;7.40;;
77234;SDS011;66253;50.526;14.974;2023-05-16T06:03:31;12.70;;;8.60;;
77234;SDS011;66253;50.526;14.974;2023-05-16T06:06:20;11.10;;;7.10;;
77234;SDS011;66253;50.526;14.974;2023-05-16T06:09:08;10.50;;;7.10;;
77234;SDS011;66253;50.526;14.974;2023-05-16T06:11:57;12.80;;;9.00;;
77234;SDS011;66253;50.526;14.974;2023-05-16T06:14:45;10.40;;;7.20;;
77234;SDS011;66253;50.526;14.974;2023-05-16T06:17:34;11.50;;;7.20;;
77234;SDS011;66253;50.526;14.974;2023-05-16T06:20:22;11.20;;;7.70;;
77234;SDS011;66253;50.526;14.974;2023-05-16T06:23:11;11.50;;;7.90;;
77234;SDS011;66253;50.526;14.974;2023-05-16T06:26:00;11.40;;;8.50;;
77234;SDS011;66253;50.526;14.974;2023-05-16T06:28:49;12.20;;;9.30;;
77234;SDS011;66253;50.526;14.974;2023-05-16T06:31:37;11.80;;;7.70;;
77234;SDS011;66253;50.526;14.974;2023-05-16T06:34:26;11.70;;;8.50;;
77234;SDS011;66253;50.526;14.974;2023-05-16T06:37:14;11.40;;;8.10;;
77234;SDS011;66253;50.526;14.974;2023-05-16T06:40:03;12.10;;;8.10;;
77234;SDS011;66253;50.526;14.974;2023-05-16T06:42:53;11.50;;;9.00;;
77234;SDS011;66253;50.526;14.974;2023-05-16T06:45:41;13.00;;;8.80;;
77234;SDS011;66253;50.526;14.974;2023-05-16T06:48:24;13.20;;;7.90;;
77234;SDS011;66253;50.526;14.974;2023-05-16T06:51:12;12.10;;;8.50;;
77234;SDS011;66253;50.526;14.974;2023-05-16T06:54:01;11.30;;;8.50;;
77234;SDS011;66253;50.526;14.974;2023-05-16T06:56:49;9.80;;;7.40;;
77234;SDS011;66253;50.526;14.974;2023-05-16T06:59:38;11.90;;;9.30;;
77234;SDS011;66253;50.526;14.974;2023-05-16T07:02:27;12.20;;;8.10;;
77234;SDS011;66253;50.526;14.974;2023-05-16T07:05:15;11.60;;;8.00;;
77234;SDS011;66253;50.526;14.974;2023-05-16T07:10:52;12.20;;;7.70;;
77234;SDS011;66253;50.526;14.974;2023-05-16T07:13:40;11.60;;;9.20;;
77234;SDS011;66253;50.526;14.974;2023-05-16T07:16:29;12.00;;;7.70;;
77234;SDS011;66253;50.526;14.974;2023-05-16T07:19:17;11.60;;;8.90;;
77234;SDS011;66253;50.526;14.974;2023-05-16T07:22:05;12.20;;;8.60;;
77234;SDS011;66253;50.526;14.974;2023-05-16T07:24:53;12.80;;;8.40;;
77234;SDS011;66253;50.526;14.974;2023-05-16T07:27:41;13.70;;;8.90;;
77234;SDS011;66253;50.526;14.974;2023-05-16T07:30:19;11.90;;;7.60;;
77234;SDS011;66253;50.526;14.974;2023-05-16T07:33:07;11.50;;;7.70;;
77234;SDS011;66253;50.526;14.974;2023-05-16T07:35:56;12.80;;;8.60;;
77234;SDS011;66253;50.526;14.974;2023-05-16T07:38:44;11.70;;;8.40;;
77234;SDS011;66253;50.526;14.974;2023-05-16T07:41:33;11.10;;;7.70;;
77234;SDS011;66253;50.526;14.974;2023-05-16T07:44:22;12.80;;;8.00;;
77234;SDS011;66253;50.526;14.974;2023-05-16T07:47:10;11.60;;;8.70;;
77234;SDS011;66253;50.526;14.974;2023-05-16T07:49:59;11.40;;;8.60;;
77234;SDS011;66253;50.526;14.974;2023-05-16T07:52:47;14.70;;;10.50;;
77234;SDS011;66253;50.526;14.974;2023-05-16T07:55:36;12.90;;;8.80;;
77234;SDS011;66253;50.526;14.974;2023-05-16T07:58:24;15.00;;;9.00;;
77234;SDS011;66253;50.526;14.974;2023-05-16T08:01:13;13.00;;;8.60;;
77234;SDS011;66253;50.526;14.974;2023-05-16T08:04:02;11.80;;;9.60;;
77234;SDS011;66253;50.526;14.974;2023-05-16T08:06:51;11.10;;;7.90;;
77234;SDS011;66253;50.526;14.974;2023-05-16T08:09:40;11.00;;;8.30;;
77234;SDS011;66253;50.526;14.974;2023-05-16T08:12:28;12.00;;;8.40;;
77234;SDS011;66253;50.526;14.974;2023-05-16T08:15:17;12.60;;;9.60;;
77234;SDS011;66253;50.526;14.974;2023-05-16T08:18:05;11.40;;;8.40;;
77234;SDS011;66253;50.526;14.974;2023-05-16T08:20:58;12.10;;;8.60;;
77234;SDS011;66253;50.526;14.974;2023-05-16T08:23:47;12.70;;;9.00;;
77234;SDS011;66253;50.526;14.974;2023-05-16T08:26:35;10.80;;;8.40;;
77234;SDS011;66253;50.526;14.974;2023-05-16T08:29:14;13.00;;;9.20;;
77234;SDS011;66253;50.526;14.974;2023-05-16T08:32:03;15.90;;;9.70;;
77234;SDS011;66253;50.526;14.974;2023-05-16T08:34:51;13.90;;;9.30;;
77234;SDS011;66253;50.526;14.974;2023-05-16T08:37:25;12.80;;;9.70;;
77234;SDS011;66253;50.526;14.974;2023-05-16T08:40:14;13.80;;;10.30;;
77234;SDS011;66253;50.526;14.974;2023-05-16T08:42:56;14.50;;;9.40;;
77234;SDS011;66253;50.526;14.974;2023-05-16T08:45:33;12.60;;;9.00;;
77234;SDS011;66253;50.526;14.974;2023-05-16T08:48:22;13.20;;;9.40;;
77234;SDS011;66253;50.526;14.974;2023-05-16T08:50:55;13.70;;;9.10;;
77234;SDS011;66253;50.526;14.974;2023-05-16T08:53:35;12.10;;;8.70;;
77234;SDS011;66253;50.526;14.974;2023-05-16T08:56:21;11.00;;;8.80;;
77234;SDS011;66253;50.526;14.974;2023-05-16T08:58:59;12.10;;;9.10;;
77234;SDS011;66253;50.526;14.974;2023-05-16T09:01:48;11.20;;;8.30;;
77234;SDS011;66253;50.526;14.974;2023-05-16T09:04:26;13.40;;;8.20;;
77234;SDS011;66253;50.526;14.974;2023-05-16T09:06:57;14.20;;;9.60;;
77234;SDS011;66253;50.526;14.974;2023-05-16T09:09:45;11.40;;;8.10;;
77234;SDS011;66253;50.526;14.974;2023-05-16T09:12:14;12.00;;;8.00;;
77234;SDS011;66253;50.526;14.974;2023-05-16T09:15:03;12.80;;;8.70;;
77234;SDS011;66253;50.526;14.974;2023-05-16T09:17:53;11.70;;;8.30;;
77234;SDS011;66253;50.526;14.974;2023-05-16T09:20:45;12.20;;;7.80;;
77234;SDS011;66253;50.526;14.974;2023-05-16T09:23:26;11.70;;;8.30;;
77234;SDS011;66253;50.526;14.974;2023-05-16T09:25:57;10.50;;;7.60;;
77234;SDS011;66253;50.526;14.974;2023-05-16T09:28:46;15.10;;;8.20;;
77234;SDS011;66253;50.526;14.974;2023-05-16T09:31:21;13.30;;;8.30;;
77234;SDS011;66253;50.526;14.974;2023-05-16T09:33:50;12.70;;;8.60;;
77234;SDS011;66253;50.526;14.974;2023-05-16T09:36:39;11.00;;;8.00;;
77234;SDS011;66253;50.526;14.974;2023-05-16T09:39:27;12.10;;;9.70;;
77234;SDS011;66253;50.526;14.974;2023-05-16T09:42:10;16.40;;;10.90;;
77234;SDS011;66253;50.526;14.974;2023-05-16T09:44:59;14.80;;;9.50;;
77234;SDS011;66253;50.526;14.974;2023-05-16T09:47:48;17.80;;;10.80;;
77234;SDS011;66253;50.526;14.974;2023-05-16T09:50:33;13.00;;;9.60;;
77234;SDS011;66253;50.526;14.974;2023-05-16T09:53:26;14.30;;;9.70;;
77234;SDS011;66253;50.526;14.974;2023-05-16T09:56:16;11.90;;;9.20;;
77234;SDS011;66253;50.526;14.974;2023-05-16T09:58:56;13.10;;;10.10;;
77234;SDS011;66253;50.526;14.974;2023-05-16T10:01:35;12.50;;;9.10;;
77234;SDS011;66253;50.526;14.974;2023-05-16T10:04:24;13.10;;;9.70;;
77234;SDS011;66253;50.526;14.974;2023-05-16T10:07:13;12.20;;;9.70;;
77234;SDS011;66253;50.526;14.974;2023-05-16T10:09:53;13.60;;;9.90;;
77234;SDS011;66253;50.526;14.974;2023-05-16T10:12:29;16.70;;;9.70;;
77234;SDS011;66253;50.526;14.974;2023-05-16T10:15:18;13.40;;;9.50;;
77234;SDS011;66253;50.526;14.974;2023-05-16T10:18:00;13.50;;;9.50;;
77234;SDS011;66253;50.526;14.974;2023-05-16T10:20:50;14.80;;;9.70;;
77234;SDS011;66253;50.526;14.974;2023-05-16T10:23:28;12.30;;;10.40;;
77234;SDS011;66253;50.526;14.974;2023-05-16T10:26:00;12.70;;;9.20;;
77234;SDS011;66253;50.526;14.974;2023-05-16T10:28:41;12.10;;;9.10;;
77234;SDS011;66253;50.526;14.974;2023-05-16T10:31:10;14.60;;;9.90;;
77234;SDS011;66253;50.526;14.974;2023-05-16T10:33:57;12.90;;;8.30;;
77234;SDS011;66253;50.526;14.974;2023-05-16T10:36:46;13.40;;;9.30;;
77234;SDS011;66253;50.526;14.974;2023-05-16T10:42:22;12.10;;;8.60;;
77234;SDS011;66253;50.526;14.974;2023-05-16T10:45:18;12.50;;;8.20;;
77234;SDS011;66253;50.526;14.974;2023-05-16T10:50:47;13.10;;;8.80;;
77234;SDS011;66253;50.526;14.974;2023-05-16T10:53:29;14.60;;;8.70;;
77234;SDS011;66253;50.526;14.974;2023-05-16T10:56:22;12.10;;;8.70;;
77234;SDS011;66253;50.526;14.974;2023-05-16T10:59:23;12.70;;;8.30;;
77234;SDS011;66253;50.526;14.974;2023-05-16T11:02:02;15.00;;;8.50;;
77234;SDS011;66253;50.526;14.974;2023-05-16T11:05:06;13.50;;;8.60;;
77234;SDS011;66253;50.526;14.974;2023-05-16T11:08:04;12.70;;;9.20;;
77234;SDS011;66253;50.526;14.974;2023-05-16T11:14:16;15.60;;;9.90;;
77234;SDS011;66253;50.526;14.974;2023-05-16T11:17:08;14.00;;;10.00;;
77234;SDS011;66253;50.526;14.974;2023-05-16T11:19:57;12.50;;;9.10;;
77234;SDS011;66253;50.526;14.974;2023-05-16T11:22:46;15.20;;;8.70;;
77234;SDS011;66253;50.526;14.974;2023-05-16T11:25:35;14.40;;;10.20;;
77234;SDS011;66253;50.526;14.974;2023-05-16T11:30:57;15.00;;;10.30;;
77234;SDS011;66253;50.526;14.974;2023-05-16T11:33:45;15.40;;;10.50;;
77234;SDS011;66253;50.526;14.974;2023-05-16T11:36:34;18.40;;;10.80;;
77234;SDS011;66253;50.526;14.974;2023-05-16T11:39:24;15.20;;;9.30;;
77234;SDS011;66253;50.526;14.974;2023-05-16T11:42:12;16.60;;;9.80;;
77234;SDS011;66253;50.526;14.974;2023-05-16T11:45:08;18.70;;;11.50;;
77234;SDS011;66253;50.526;14.974;2023-05-16T11:48:00;18.50;;;12.20;;
77234;SDS011;66253;50.526;14.974;2023-05-16T11:50:49;17.10;;;10.00;;
77234;SDS011;66253;50.526;14.974;2023-05-16T11:53:38;18.00;;;10.30;;
77234;SDS011;66253;50.526;14.974;2023-05-16T11:56:26;17.80;;;9.30;;
77234;SDS011;66253;50.526;14.974;2023-05-16T11:59:15;22.00;;;11.40;;
77234;SDS011;66253;50.526;14.974;2023-05-16T12:02:04;15.50;;;10.20;;
77234;SDS011;66253;50.526;14.974;2023-05-16T12:04:54;17.00;;;10.20;;
77234;SDS011;66253;50.526;14.974;2023-05-16T12:07:43;18.00;;;11.10;;
77234;SDS011;66253;50.526;14.974;2023-05-16T12:10:32;23.20;;;10.10;;
77234;SDS011;66253;50.526;14.974;2023-05-16T12:13:21;17.40;;;10.10;;
77234;SDS011;66253;50.526;14.974;2023-05-16T12:16:11;17.60;;;10.50;;
77234;SDS011;66253;50.526;14.974;2023-05-16T12:19:00;18.10;;;10.00;;
77234;SDS011;66253;50.526;14.974;2023-05-16T12:21:32;18.70;;;10.90;;
77234;SDS011;66253;50.526;14.974;2023-05-16T12:27:08;18.00;;;9.70;;
77234;SDS011;66253;50.526;14.974;2023-05-16T12:29:58;18.30;;;10.10;;
77234;SDS011;66253;50.526;14.974;2023-05-16T12:32:46;17.10;;;10.40;;
77234;SDS011;66253;50.526;14.974;2023-05-16T12:35:31;18.80;;;10.90;;
77234;SDS011;66253;50.526;14.974;2023-05-16T12:38:21;19.20;;;11.40;;
77234;SDS011;66253;50.526;14.974;2023-05-16T12:41:09;19.20;;;12.10;;
77234;SDS011;66253;50.526;14.974;2023-05-16T12:44:12;16.80;;;9.60;;
77234;SDS011;66253;50.526;14.974;2023-05-16T12:47:01;17.70;;;10.80;;
77234;SDS011;66253;50.526;14.974;2023-05-16T12:49:56;16.50;;;8.80;;
77234;SDS011;66253;50.526;14.974;2023-05-16T12:52:46;18.00;;;10.50;;
77234;SDS011;66253;50.526;14.974;2023-05-16T12:55:36;18.50;;;9.90;;
77234;SDS011;66253;50.526;14.974;2023-05-16T12:58:25;16.70;;;10.30;;
77234;SDS011;66253;50.526;14.974;2023-05-16T13:01:16;19.40;;;9.30;;
77234;SDS011;66253;50.526;14.974;2023-05-16T13:03:44;19.20;;;10.00;;
77234;SDS011;66253;50.526;14.974;2023-05-16T13:06:25;15.60;;;9.60;;
77234;SDS011;66253;50.526;14.974;2023-05-16T13:09:05;15.90;;;9.60;;
77234;SDS011;66253;50.526;14.974;2023-05-16T13:11:46;14.70;;;8.70;;
77234;SDS011;66253;50.526;14.974;2023-05-16T13:18:09;14.50;;;8.50;;
77234;SDS011;66253;50.526;14.974;2023-05-16T13:20:38;15.50;;;8.10;;
77234;SDS011;66253;50.526;14.974;2023-05-16T13:23:26;17.40;;;9.30;;
77234;SDS011;66253;50.526;14.974;2023-05-16T13:26:14;16.30;;;9.40;;
77234;SDS011;66253;50.526;14.974;2023-05-16T13:29:02;16.00;;;9.30;;
77234;SDS011;66253;50.526;14.974;2023-05-16T13:31:51;17.60;;;9.60;;
77234;SDS011;66253;50.526;14.974;2023-05-16T13:34:39;18.30;;;10.00;;
77234;SDS011;66253;50.526;14.974;2023-05-16T13:37:24;17.80;;;10.20;;
77234;SDS011;66253;50.526;14.974;2023-05-16T13:40:03;13.60;;;7.80;;
77234;SDS011;66253;50.526;14.974;2023-05-16T13:42:53;15.00;;;8.80;;
77234;SDS011;66253;50.526;14.974;2023-05-16T13:45:42;16.80;;;9.60;;
77234;SDS011;66253;50.526;14.974;2023-05-16T13:48:31;16.90;;;10.40;;
77234;SDS011;66253;50.526;14.974;2023-05-16T13:51:12;18.10;;;10.50;;
77234;SDS011;66253;50.526;14.974;2023-05-16T13:54:01;14.10;;;8.60;;
77234;SDS011;66253;50.526;14.974;2023-05-16T13:56:48;15.40;;;8.50;;
77234;SDS011;66253;50.526;14.974;2023-05-16T13:59:36;17.60;;;9.30;;
77234;SDS011;66253;50.526;14.974;2023-05-16T14:02:25;16.90;;;9.10;;
77234;SDS011;66253;50.526;14.974;2023-05-16T14:05:13;20.60;;;12.50;;
77234;SDS011;66253;50.526;14.974;2023-05-16T14:08:02;26.10;;;17.10;;
77234;SDS011;66253;50.526;14.974;2023-05-16T14:10:51;16.50;;;9.70;;
77234;SDS011;66253;50.526;14.974;2023-05-16T14:13:39;17.70;;;10.40;;
77234;SDS011;66253;50.526;14.974;2023-05-16T14:16:28;16.10;;;10.30;;
77234;SDS011;66253;50.526;14.974;2023-05-16T14:19:16;18.70;;;11.00;;
77234;SDS011;66253;50.526;14.974;2023-05-16T14:21:48;17.90;;;11.00;;
77234;SDS011;66253;50.526;14.974;2023-05-16T14:24:36;18.60;;;10.10;;
77234;SDS011;66253;50.526;14.974;2023-05-16T14:27:25;41.50;;;19.70;;
77234;SDS011;66253;50.526;14.974;2023-05-16T14:30:13;23.10;;;11.60;;
77234;SDS011;66253;50.526;14.974;2023-05-16T14:32:55;19.30;;;11.50;;
77234;SDS011;66253;50.526;14.974;2023-05-16T14:38:46;26.10;;;15.80;;
77234;SDS011;66253;50.526;14.974;2023-05-16T14:41:15;22.90;;;12.90;;
77234;SDS011;66253;50.526;14.974;2023-05-16T14:43:56;28.50;;;16.70;;
77234;SDS011;66253;50.526;14.974;2023-05-16T14:46:37;24.50;;;13.20;;
77234;SDS011;66253;50.526;14.974;2023-05-16T14:49:25;20.70;;;10.90;;
77234;SDS011;66253;50.526;14.974;2023-05-16T14:52:14;28.40;;;16.00;;
77234;SDS011;66253;50.526;14.974;2023-05-16T14:54:56;34.50;;;19.50;;
77234;SDS011;66253;50.526;14.974;2023-05-16T14:57:45;34.30;;;17.00;;
77234;SDS011;66253;50.526;14.974;2023-05-16T15:00:34;26.20;;;12.70;;
77234;SDS011;66253;50.526;14.974;2023-05-16T15:03:22;19.00;;;11.10;;
77234;SDS011;66253;50.526;14.974;2023-05-16T15:06:11;28.10;;;18.00;;
77234;SDS011;66253;50.526;14.974;2023-05-16T15:08:59;19.20;;;10.40;;
77234;SDS011;66253;50.526;14.974;2023-05-16T15:11:48;45.80;;;23.90;;
77234;SDS011;66253;50.526;14.974;2023-05-16T15:14:37;26.60;;;15.00;;
77234;SDS011;66253;50.526;14.974;2023-05-16T15:17:14;17.80;;;9.40;;
77234;SDS011;66253;50.526;14.974;2023-05-16T15:20:04;17.40;;;8.90;;
77234;SDS011;66253;50.526;14.974;2023-05-16T15:22:54;18.50;;;8.40;;
77234;SDS011;66253;50.526;14.974;2023-05-16T15:25:42;23.60;;;13.50;;
77234;SDS011;66253;50.526;14.974;2023-05-16T15:28:31;34.00;;;20.70;;
77234;SDS011;66253;50.526;14.974;2023-05-16T15:31:19;32.00;;;19.80;;
77234;SDS011;66253;50.526;14.974;2023-05-16T15:34:08;21.10;;;12.80;;
77234;SDS011;66253;50.526;14.974;2023-05-16T15:36:56;31.00;;;17.60;;
77234;SDS011;66253;50.526;14.974;2023-05-16T15:39:45;21.60;;;13.30;;
77234;SDS011;66253;50.526;14.974;2023-05-16T15:42:33;18.80;;;11.00;;
77234;SDS011;66253;50.526;14.974;2023-05-16T15:45:05;16.30;;;10.10;;
77234;SDS011;66253;50.526;14.974;2023-05-16T15:47:55;15.20;;;9.60;;
77234;SDS011;66253;50.526;14.974;2023-05-16T15:50:43;18.50;;;11.50;;
77234;SDS011;66253;50.526;14.974;2023-05-16T15:53:32;23.30;;;12.50;;
77234;SDS011;66253;50.526;14.974;2023-05-16T15:56:20;13.30;;;7.70;;
77234;SDS011;66253;50.526;14.974;2023-05-16T15:59:09;15.80;;;9.20;;
77234;SDS011;66253;50.526;14.974;2023-05-16T16:01:58;23.90;;;14.20;;
77234;SDS011;66253;50.526;14.974;2023-05-16T16:04:39;16.90;;;8.30;;
77234;SDS011;66253;50.526;14.974;2023-05-16T16:07:28;15.80;;;8.50;;
77234;SDS011;66253;50.526;14.974;2023-05-16T16:10:16;12.70;;;7.80;;
77234;SDS011;66253;50.526;14.974;2023-05-16T16:13:05;13.10;;;7.80;;
77234;SDS011;66253;50.526;14.974;2023-05-16T16:15:53;13.20;;;6.90;;
77234;SDS011;66253;50.526;14.974;2023-05-16T16:18:42;14.60;;;7.60;;
77234;SDS011;66253;50.526;14.974;2023-05-16T16:21:30;16.10;;;8.00;;
77234;SDS011;66253;50.526;14.974;2023-05-16T16:24:19;16.20;;;8.80;;
77234;SDS011;66253;50.526;14.974;2023-05-16T16:27:07;15.90;;;9.60;;
77234;SDS011;66253;50.526;14.974;2023-05-16T16:29:56;19.00;;;8.90;;
77234;SDS011;66253;50.526;14.974;2023-05-16T16:32:44;16.90;;;7.80;;
77234;SDS011;66253;50.526;14.974;2023-05-16T16:35:33;17.20;;;9.40;;
77234;SDS011;66253;50.526;14.974;2023-05-16T16:38:21;19.40;;;8.20;;
77234;SDS011;66253;50.526;14.974;2023-05-16T16:41:10;14.00;;;8.30;;
77234;SDS011;66253;50.526;14.974;2023-05-16T16:43:58;15.10;;;8.10;;
77234;SDS011;66253;50.526;14.974;2023-05-16T16:46:47;12.40;;;7.10;;
77234;SDS011;66253;50.526;14.974;2023-05-16T16:49:36;13.00;;;7.70;;
77234;SDS011;66253;50.526;14.974;2023-05-16T16:52:24;14.30;;;8.30;;
77234;SDS011;66253;50.526;14.974;2023-05-16T16:55:06;15.90;;;7.50;;
77234;SDS011;66253;50.526;14.974;2023-05-16T16:57:55;14.20;;;8.20;;